sensor_id;sensor_type;location;lat;lon;timestamp;P1;durP1;ratioP1;P2;durP2;ratioP2
74926;SDS011;63488;48.092;-1.640;2022-12-29T00:01:33;14.38;;;2.72;;
74926;SDS011;63488;48.092;-1.640;2022-12-29T00:03:59;12.40;;;2.75;;
74926;SDS011;63488;48.092;-1.640;2022-12-29T00:06:24;14.93;;;2.53;;
74926;SDS011;63488;48.092;-1.640;2022-12-29T00:08:50;14.57;;;2.70;;
74926;SDS011;63488;48.092;-1.640;2022-12-29T00:11:19;15.35;;;2.65;;
74926;SDS011;63488;48.092;-1.640;2022-12-29T00:13:45;13.23;;;2.30;;
74926;SDS011;63488;48.092;-1.640;2022-12-29T00:16:30;17.08;;;2.70;;
74926;SDS011;63488;48.092;-1.640;2022-12-29T00:18:55;11.70;;;2.20;;
74926;SDS011;63488;48.092;-1.640;2022-12-29T00:21:21;20.33;;;3.28;;
74926;SDS011;63488;48.092;-1.640;2022-12-29T00:24:08;16.15;;;2.60;;
74926;SDS011;63488;48.092;-1.640;2022-12-29T00:27:04;13.88;;;2.53;;
74926;SDS011;63488;48.092;-1.640;2022-12-29T00:29:52;16.58;;;3.05;;
74926;SDS011;63488;48.092;-1.640;2022-12-29T00:32:36;18.90;;;2.90;;
74926;SDS011;63488;48.092;-1.640;2022-12-29T00:35:25;18.10;;;2.90;;
74926;SDS011;63488;48.092;-1.640;2022-12-29T00:37:52;15.18;;;2.55;;
74926;SDS011;63488;48.092;-1.640;2022-12-29T00:40:36;15.50;;;2.75;;
74926;SDS011;63488;48.092;-1.640;2022-12-29T00:43:20;10.48;;;2.15;;
74926;SDS011;63488;48.092;-1.640;2022-12-29T00:46:03;10.65;;;2.20;;
74926;SDS011;63488;48.092;-1.640;2022-12-29T00:48:29;17.10;;;2.80;;
74926;SDS011;63488;48.092;-1.640;2022-12-29T00:51:13;14.70;;;2.55;;
74926;SDS011;63488;48.092;-1.640;2022-12-29T00:53:38;16.58;;;2.75;;
74926;SDS011;63488;48.092;-1.640;2022-12-29T00:56:04;10.30;;;2.08;;
74926;SDS011;63488;48.092;-1.640;2022-12-29T00:58:29;11.07;;;1.98;;
74926;SDS011;63488;48.092;-1.640;2022-12-29T01:01:04;15.45;;;2.50;;
74926;SDS011;63488;48.092;-1.640;2022-12-29T01:03:30;14.18;;;2.30;;
74926;SDS011;63488;48.092;-1.640;2022-12-29T01:05:55;14.30;;;2.53;;
74926;SDS011;63488;48.092;-1.640;2022-12-29T01:08:21;15.90;;;2.70;;
74926;SDS011;63488;48.092;-1.640;2022-12-29T01:10:46;18.50;;;2.95;;
74926;SDS011;63488;48.092;-1.640;2022-12-29T01:13:12;12.93;;;2.40;;
74926;SDS011;63488;48.092;-1.640;2022-12-29T01:15:37;18.42;;;2.30;;
74926;SDS011;63488;48.092;-1.640;2022-12-29T01:18:02;15.15;;;2.47;;
74926;SDS011;63488;48.092;-1.640;2022-12-29T01:20:28;14.27;;;2.60;;
74926;SDS011;63488;48.092;-1.640;2022-12-29T01:22:53;17.52;;;2.83;;
74926;SDS011;63488;48.092;-1.640;2022-12-29T01:25:19;14.25;;;2.60;;
74926;SDS011;63488;48.092;-1.640;2022-12-29T01:27:44;14.05;;;2.42;;
74926;SDS011;63488;48.092;-1.640;2022-12-29T01:30:09;15.70;;;2.70;;
74926;SDS011;63488;48.092;-1.640;2022-12-29T01:32:35;14.32;;;2.55;;
74926;SDS011;63488;48.092;-1.640;2022-12-29T01:35:00;15.05;;;2.38;;
74926;SDS011;63488;48.092;-1.640;2022-12-29T01:37:26;12.73;;;2.22;;
74926;SDS011;63488;48.092;-1.640;2022-12-29T01:39:51;10.73;;;2.10;;
74926;SDS011;63488;48.092;-1.640;2022-12-29T01:42:17;18.05;;;3.00;;
74926;SDS011;63488;48.092;-1.640;2022-12-29T01:47:15;12.82;;;2.05;;
74926;SDS011;63488;48.092;-1.640;2022-12-29T01:49:43;9.80;;;1.73;;
74926;SDS011;63488;48.092;-1.640;2022-12-29T01:52:09;11.95;;;1.77;;
74926;SDS011;63488;48.092;-1.640;2022-12-29T01:54:36;13.63;;;1.98;;
74926;SDS011;63488;48.092;-1.640;2022-12-29T01:57:04;12.50;;;1.92;;
74926;SDS011;63488;48.092;-1.640;2022-12-29T01:59:32;11.45;;;1.90;;
74926;SDS011;63488;48.092;-1.640;2022-12-29T02:01:59;8.45;;;1.50;;
74926;SDS011;63488;48.092;-1.640;2022-12-29T02:04:25;9.50;;;1.60;;
74926;SDS011;63488;48.092;-1.640;2022-12-29T02:06:52;7.25;;;1.58;;
74926;SDS011;63488;48.092;-1.640;2022-12-29T02:09:18;11.10;;;1.90;;
74926;SDS011;63488;48.092;-1.640;2022-12-29T02:11:44;10.88;;;1.73;;
74926;SDS011;63488;48.092;-1.640;2022-12-29T02:14:10;13.10;;;2.17;;
74926;SDS011;63488;48.092;-1.640;2022-12-29T02:16:41;11.93;;;2.13;;
74926;SDS011;63488;48.092;-1.640;2022-12-29T02:32:08;11.23;;;1.88;;
74926;SDS011;63488;48.092;-1.640;2022-12-29T02:37:07;10.80;;;2.00;;
74926;SDS011;63488;48.092;-1.640;2022-12-29T02:52:06;13.45;;;2.53;;
74926;SDS011;63488;48.092;-1.640;2022-12-29T02:54:32;12.10;;;2.40;;
74926;SDS011;63488;48.092;-1.640;2022-12-29T02:57:14;14.98;;;2.72;;
74926;SDS011;63488;48.092;-1.640;2022-12-29T02:59:41;12.50;;;1.92;;
74926;SDS011;63488;48.092;-1.640;2022-12-29T03:07:23;11.70;;;2.30;;
74926;SDS011;63488;48.092;-1.640;2022-12-29T03:09:52;16.27;;;2.08;;
74926;SDS011;63488;48.092;-1.640;2022-12-29T03:12:37;11.00;;;2.08;;
74926;SDS011;63488;48.092;-1.640;2022-12-29T03:15:25;15.90;;;2.28;;
74926;SDS011;63488;48.092;-1.640;2022-12-29T03:21:05;15.05;;;2.55;;
74926;SDS011;63488;48.092;-1.640;2022-12-29T03:23:33;10.30;;;2.53;;
74926;SDS011;63488;48.092;-1.640;2022-12-29T03:26:01;11.45;;;1.63;;
74926;SDS011;63488;48.092;-1.640;2022-12-29T03:28:37;12.60;;;2.30;;
74926;SDS011;63488;48.092;-1.640;2022-12-29T03:31:03;12.30;;;2.03;;
74926;SDS011;63488;48.092;-1.640;2022-12-29T03:33:29;13.50;;;1.95;;
74926;SDS011;63488;48.092;-1.640;2022-12-29T03:36:00;10.50;;;2.00;;
74926;SDS011;63488;48.092;-1.640;2022-12-29T03:38:30;9.60;;;1.90;;
74926;SDS011;63488;48.092;-1.640;2022-12-29T03:40:58;9.93;;;1.80;;
74926;SDS011;63488;48.092;-1.640;2022-12-29T03:43:25;12.98;;;2.35;;
74926;SDS011;63488;48.092;-1.640;2022-12-29T03:45:51;10.68;;;1.67;;
74926;SDS011;63488;48.092;-1.640;2022-12-29T03:48:16;11.93;;;2.05;;
74926;SDS011;63488;48.092;-1.640;2022-12-29T03:50:41;13.82;;;2.15;;
74926;SDS011;63488;48.092;-1.640;2022-12-29T03:53:07;12.27;;;2.47;;
74926;SDS011;63488;48.092;-1.640;2022-12-29T03:55:32;12.45;;;1.77;;
74926;SDS011;63488;48.092;-1.640;2022-12-29T03:57:57;11.43;;;2.25;;
74926;SDS011;63488;48.092;-1.640;2022-12-29T04:00:23;12.23;;;2.03;;
74926;SDS011;63488;48.092;-1.640;2022-12-29T04:02:48;11.18;;;2.10;;
74926;SDS011;63488;48.092;-1.640;2022-12-29T04:05:13;15.38;;;2.10;;
74926;SDS011;63488;48.092;-1.640;2022-12-29T04:07:39;14.10;;;1.88;;
74926;SDS011;63488;48.092;-1.640;2022-12-29T04:10:04;10.25;;;1.92;;
74926;SDS011;63488;48.092;-1.640;2022-12-29T04:12:29;12.05;;;2.13;;
74926;SDS011;63488;48.092;-1.640;2022-12-29T04:14:55;9.60;;;1.80;;
74926;SDS011;63488;48.092;-1.640;2022-12-29T04:17:20;12.40;;;1.80;;
74926;SDS011;63488;48.092;-1.640;2022-12-29T04:19:45;12.05;;;2.33;;
74926;SDS011;63488;48.092;-1.640;2022-12-29T04:22:11;16.33;;;2.88;;
74926;SDS011;63488;48.092;-1.640;2022-12-29T04:24:37;8.57;;;2.08;;
74926;SDS011;63488;48.092;-1.640;2022-12-29T04:27:02;10.82;;;2.13;;
74926;SDS011;63488;48.092;-1.640;2022-12-29T04:29:27;11.52;;;2.30;;
74926;SDS011;63488;48.092;-1.640;2022-12-29T04:31:53;12.27;;;2.05;;
74926;SDS011;63488;48.092;-1.640;2022-12-29T04:34:18;14.13;;;2.40;;
74926;SDS011;63488;48.092;-1.640;2022-12-29T04:36:43;14.02;;;2.60;;
74926;SDS011;63488;48.092;-1.640;2022-12-29T04:39:09;10.80;;;1.92;;
74926;SDS011;63488;48.092;-1.640;2022-12-29T04:41:34;16.02;;;2.72;;
74926;SDS011;63488;48.092;-1.640;2022-12-29T04:43:59;12.88;;;2.05;;
74926;SDS011;63488;48.092;-1.640;2022-12-29T04:46:25;16.38;;;2.90;;
74926;SDS011;63488;48.092;-1.640;2022-12-29T04:48:50;12.15;;;1.88;;
74926;SDS011;63488;48.092;-1.640;2022-12-29T04:51:15;16.35;;;2.58;;
74926;SDS011;63488;48.092;-1.640;2022-12-29T04:53:41;14.55;;;2.47;;
74926;SDS011;63488;48.092;-1.640;2022-12-29T04:56:06;14.77;;;2.50;;
74926;SDS011;63488;48.092;-1.640;2022-12-29T04:58:32;14.43;;;1.98;;
74926;SDS011;63488;48.092;-1.640;2022-12-29T05:00:57;13.65;;;2.35;;
74926;SDS011;63488;48.092;-1.640;2022-12-29T05:03:22;15.52;;;2.15;;
74926;SDS011;63488;48.092;-1.640;2022-12-29T05:05:48;15.63;;;2.30;;
74926;SDS011;63488;48.092;-1.640;2022-12-29T05:08:13;14.45;;;2.45;;
74926;SDS011;63488;48.092;-1.640;2022-12-29T05:10:39;15.75;;;2.88;;
74926;SDS011;63488;48.092;-1.640;2022-12-29T05:13:04;15.70;;;2.70;;
74926;SDS011;63488;48.092;-1.640;2022-12-29T05:15:29;14.25;;;2.50;;
74926;SDS011;63488;48.092;-1.640;2022-12-29T05:17:55;12.50;;;2.33;;
74926;SDS011;63488;48.092;-1.640;2022-12-29T05:20:20;15.07;;;2.22;;
74926;SDS011;63488;48.092;-1.640;2022-12-29T05:22:45;15.75;;;2.40;;
74926;SDS011;63488;48.092;-1.640;2022-12-29T05:25:11;13.02;;;2.20;;
74926;SDS011;63488;48.092;-1.640;2022-12-29T05:27:36;14.25;;;2.10;;
74926;SDS011;63488;48.092;-1.640;2022-12-29T05:30:02;14.32;;;2.38;;
74926;SDS011;63488;48.092;-1.640;2022-12-29T05:32:27;14.48;;;2.97;;
74926;SDS011;63488;48.092;-1.640;2022-12-29T05:34:53;18.80;;;2.92;;
74926;SDS011;63488;48.092;-1.640;2022-12-29T05:37:18;13.20;;;2.47;;
74926;SDS011;63488;48.092;-1.640;2022-12-29T05:39:43;14.95;;;3.10;;
74926;SDS011;63488;48.092;-1.640;2022-12-29T05:42:09;18.65;;;3.05;;
74926;SDS011;63488;48.092;-1.640;2022-12-29T05:44:34;19.58;;;2.63;;
74926;SDS011;63488;48.092;-1.640;2022-12-29T05:46:59;17.48;;;2.90;;
74926;SDS011;63488;48.092;-1.640;2022-12-29T05:49:25;15.35;;;2.53;;
74926;SDS011;63488;48.092;-1.640;2022-12-29T05:51:50;17.58;;;2.97;;
74926;SDS011;63488;48.092;-1.640;2022-12-29T05:54:15;14.52;;;2.35;;
74926;SDS011;63488;48.092;-1.640;2022-12-29T05:56:41;14.00;;;2.55;;
74926;SDS011;63488;48.092;-1.640;2022-12-29T05:59:06;14.05;;;2.38;;
74926;SDS011;63488;48.092;-1.640;2022-12-29T06:01:31;14.07;;;2.30;;
74926;SDS011;63488;48.092;-1.640;2022-12-29T06:03:58;16.05;;;2.65;;
74926;SDS011;63488;48.092;-1.640;2022-12-29T06:06:23;10.57;;;2.55;;
74926;SDS011;63488;48.092;-1.640;2022-12-29T06:08:49;18.83;;;2.80;;
74926;SDS011;63488;48.092;-1.640;2022-12-29T06:11:14;12.98;;;2.00;;
74926;SDS011;63488;48.092;-1.640;2022-12-29T06:13:39;16.35;;;2.85;;
74926;SDS011;63488;48.092;-1.640;2022-12-29T06:16:05;15.73;;;2.70;;
74926;SDS011;63488;48.092;-1.640;2022-12-29T06:18:30;11.90;;;2.30;;
74926;SDS011;63488;48.092;-1.640;2022-12-29T06:20:59;17.77;;;2.72;;
74926;SDS011;63488;48.092;-1.640;2022-12-29T06:23:25;16.10;;;2.65;;
74926;SDS011;63488;48.092;-1.640;2022-12-29T06:25:50;10.52;;;2.05;;
74926;SDS011;63488;48.092;-1.640;2022-12-29T06:28:15;14.23;;;2.45;;
74926;SDS011;63488;48.092;-1.640;2022-12-29T06:30:43;14.77;;;2.67;;
74926;SDS011;63488;48.092;-1.640;2022-12-29T06:33:08;13.43;;;2.45;;
74926;SDS011;63488;48.092;-1.640;2022-12-29T06:35:33;14.40;;;2.45;;
74926;SDS011;63488;48.092;-1.640;2022-12-29T06:37:59;16.73;;;2.70;;
74926;SDS011;63488;48.092;-1.640;2022-12-29T06:40:24;15.32;;;2.70;;
74926;SDS011;63488;48.092;-1.640;2022-12-29T06:42:49;15.70;;;2.40;;
74926;SDS011;63488;48.092;-1.640;2022-12-29T06:45:15;12.95;;;2.70;;
74926;SDS011;63488;48.092;-1.640;2022-12-29T06:47:40;16.42;;;2.55;;
74926;SDS011;63488;48.092;-1.640;2022-12-29T06:50:05;14.38;;;2.72;;
74926;SDS011;63488;48.092;-1.640;2022-12-29T06:52:31;19.88;;;2.60;;
74926;SDS011;63488;48.092;-1.640;2022-12-29T06:54:56;15.02;;;2.65;;
74926;SDS011;63488;48.092;-1.640;2022-12-29T06:57:21;15.55;;;2.70;;
74926;SDS011;63488;48.092;-1.640;2022-12-29T06:59:47;19.52;;;2.80;;
74926;SDS011;63488;48.092;-1.640;2022-12-29T07:02:12;17.67;;;2.35;;
74926;SDS011;63488;48.092;-1.640;2022-12-29T07:04:39;16.85;;;2.97;;
74926;SDS011;63488;48.092;-1.640;2022-12-29T07:07:05;16.80;;;2.55;;
74926;SDS011;63488;48.092;-1.640;2022-12-29T07:09:30;14.07;;;2.40;;
74926;SDS011;63488;48.092;-1.640;2022-12-29T07:11:55;15.85;;;2.70;;
74926;SDS011;63488;48.092;-1.640;2022-12-29T07:14:20;12.85;;;2.75;;
74926;SDS011;63488;48.092;-1.640;2022-12-29T07:16:46;11.98;;;2.67;;
74926;SDS011;63488;48.092;-1.640;2022-12-29T07:19:11;18.13;;;2.83;;
74926;SDS011;63488;48.092;-1.640;2022-12-29T07:21:36;17.48;;;2.80;;
74926;SDS011;63488;48.092;-1.640;2022-12-29T07:24:02;11.75;;;2.72;;
74926;SDS011;63488;48.092;-1.640;2022-12-29T07:26:27;18.42;;;3.25;;
74926;SDS011;63488;48.092;-1.640;2022-12-29T07:28:53;14.77;;;2.60;;
74926;SDS011;63488;48.092;-1.640;2022-12-29T07:31:19;19.67;;;2.55;;
74926;SDS011;63488;48.092;-1.640;2022-12-29T07:33:45;15.02;;;2.58;;
74926;SDS011;63488;48.092;-1.640;2022-12-29T07:36:12;14.35;;;2.67;;
74926;SDS011;63488;48.092;-1.640;2022-12-29T07:38:37;12.82;;;2.53;;
74926;SDS011;63488;48.092;-1.640;2022-12-29T07:41:03;12.60;;;3.03;;
74926;SDS011;63488;48.092;-1.640;2022-12-29T07:43:28;11.65;;;2.55;;
74926;SDS011;63488;48.092;-1.640;2022-12-29T07:45:54;12.82;;;2.20;;
74926;SDS011;63488;48.092;-1.640;2022-12-29T07:48:19;16.40;;;3.00;;
74926;SDS011;63488;48.092;-1.640;2022-12-29T07:50:44;18.20;;;2.67;;
74926;SDS011;63488;48.092;-1.640;2022-12-29T07:53:10;17.15;;;2.70;;
74926;SDS011;63488;48.092;-1.640;2022-12-29T07:55:35;16.60;;;2.65;;
74926;SDS011;63488;48.092;-1.640;2022-12-29T07:58:00;19.75;;;3.33;;
74926;SDS011;63488;48.092;-1.640;2022-12-29T08:00:26;15.68;;;2.85;;
74926;SDS011;63488;48.092;-1.640;2022-12-29T08:02:51;11.68;;;2.53;;
74926;SDS011;63488;48.092;-1.640;2022-12-29T08:05:16;11.07;;;2.33;;
74926;SDS011;63488;48.092;-1.640;2022-12-29T08:07:42;14.80;;;2.95;;
74926;SDS011;63488;48.092;-1.640;2022-12-29T08:10:08;13.18;;;2.38;;
74926;SDS011;63488;48.092;-1.640;2022-12-29T08:12:34;12.27;;;2.88;;
74926;SDS011;63488;48.092;-1.640;2022-12-29T08:14:59;11.38;;;2.88;;
74926;SDS011;63488;48.092;-1.640;2022-12-29T08:17:24;15.80;;;2.63;;
74926;SDS011;63488;48.092;-1.640;2022-12-29T08:19:50;15.20;;;2.78;;
74926;SDS011;63488;48.092;-1.640;2022-12-29T08:22:15;12.07;;;2.33;;
74926;SDS011;63488;48.092;-1.640;2022-12-29T08:24:40;12.75;;;2.78;;
74926;SDS011;63488;48.092;-1.640;2022-12-29T08:27:06;12.32;;;2.80;;
74926;SDS011;63488;48.092;-1.640;2022-12-29T08:29:31;13.70;;;2.63;;
74926;SDS011;63488;48.092;-1.640;2022-12-29T08:31:56;11.82;;;2.92;;
74926;SDS011;63488;48.092;-1.640;2022-12-29T08:34:22;15.75;;;2.42;;
74926;SDS011;63488;48.092;-1.640;2022-12-29T08:36:47;15.10;;;2.55;;
74926;SDS011;63488;48.092;-1.640;2022-12-29T08:39:12;15.27;;;2.70;;
74926;SDS011;63488;48.092;-1.640;2022-12-29T08:41:38;16.35;;;2.70;;
74926;SDS011;63488;48.092;-1.640;2022-12-29T08:44:04;13.52;;;2.40;;
74926;SDS011;63488;48.092;-1.640;2022-12-29T08:46:29;13.90;;;2.35;;
74926;SDS011;63488;48.092;-1.640;2022-12-29T08:48:54;16.52;;;2.60;;
74926;SDS011;63488;48.092;-1.640;2022-12-29T08:51:20;16.48;;;3.55;;
74926;SDS011;63488;48.092;-1.640;2022-12-29T08:53:45;15.77;;;2.78;;
74926;SDS011;63488;48.092;-1.640;2022-12-29T08:56:11;15.57;;;2.90;;
74926;SDS011;63488;48.092;-1.640;2022-12-29T08:58:36;18.50;;;3.30;;
74926;SDS011;63488;48.092;-1.640;2022-12-29T09:01:02;14.30;;;2.38;;
74926;SDS011;63488;48.092;-1.640;2022-12-29T09:03:27;16.65;;;3.40;;
74926;SDS011;63488;48.092;-1.640;2022-12-29T09:05:53;13.68;;;2.70;;
74926;SDS011;63488;48.092;-1.640;2022-12-29T09:08:19;13.55;;;2.92;;
74926;SDS011;63488;48.092;-1.640;2022-12-29T09:10:44;14.50;;;2.70;;
74926;SDS011;63488;48.092;-1.640;2022-12-29T09:13:10;16.50;;;2.60;;
74926;SDS011;63488;48.092;-1.640;2022-12-29T09:15:36;20.67;;;2.75;;
74926;SDS011;63488;48.092;-1.640;2022-12-29T09:18:01;15.82;;;2.45;;
74926;SDS011;63488;48.092;-1.640;2022-12-29T09:20:27;15.52;;;2.63;;
74926;SDS011;63488;48.092;-1.640;2022-12-29T09:22:52;21.15;;;2.97;;
74926;SDS011;63488;48.092;-1.640;2022-12-29T09:25:17;17.08;;;3.22;;
74926;SDS011;63488;48.092;-1.640;2022-12-29T09:27:43;12.52;;;2.60;;
74926;SDS011;63488;48.092;-1.640;2022-12-29T09:30:09;17.35;;;2.83;;
74926;SDS011;63488;48.092;-1.640;2022-12-29T09:32:35;14.70;;;3.15;;
74926;SDS011;63488;48.092;-1.640;2022-12-29T09:35:01;12.68;;;2.60;;
74926;SDS011;63488;48.092;-1.640;2022-12-29T09:37:27;14.70;;;3.25;;
74926;SDS011;63488;48.092;-1.640;2022-12-29T09:39:52;14.48;;;2.20;;
74926;SDS011;63488;48.092;-1.640;2022-12-29T09:45:15;11.65;;;2.45;;
74926;SDS011;63488;48.092;-1.640;2022-12-29T09:52:47;12.60;;;2.70;;
74926;SDS011;63488;48.092;-1.640;2022-12-29T09:55:17;11.48;;;2.38;;
74926;SDS011;63488;48.092;-1.640;2022-12-29T09:58:06;14.90;;;3.05;;
74926;SDS011;63488;48.092;-1.640;2022-12-29T10:00:37;13.10;;;2.60;;
74926;SDS011;63488;48.092;-1.640;2022-12-29T10:03:12;11.20;;;2.38;;
74926;SDS011;63488;48.092;-1.640;2022-12-29T10:08:26;15.23;;;2.58;;
74926;SDS011;63488;48.092;-1.640;2022-12-29T10:10:59;11.18;;;2.13;;
74926;SDS011;63488;48.092;-1.640;2022-12-29T10:21:14;8.43;;;2.00;;
74926;SDS011;63488;48.092;-1.640;2022-12-29T10:23:43;14.57;;;2.25;;
74926;SDS011;63488;48.092;-1.640;2022-12-29T10:26:14;10.30;;;2.38;;
74926;SDS011;63488;48.092;-1.640;2022-12-29T10:28:48;13.57;;;2.70;;
74926;SDS011;63488;48.092;-1.640;2022-12-29T10:31:33;12.20;;;2.13;;
74926;SDS011;63488;48.092;-1.640;2022-12-29T10:34:01;16.63;;;2.65;;
74926;SDS011;63488;48.092;-1.640;2022-12-29T10:36:29;12.85;;;2.47;;
74926;SDS011;63488;48.092;-1.640;2022-12-29T10:39:02;15.93;;;2.40;;
74926;SDS011;63488;48.092;-1.640;2022-12-29T10:41:34;12.32;;;2.25;;
74926;SDS011;63488;48.092;-1.640;2022-12-29T10:44:01;13.45;;;2.53;;
74926;SDS011;63488;48.092;-1.640;2022-12-29T10:46:31;11.90;;;2.08;;
74926;SDS011;63488;48.092;-1.640;2022-12-29T10:48:57;16.65;;;2.95;;
74926;SDS011;63488;48.092;-1.640;2022-12-29T10:51:28;14.75;;;2.42;;
74926;SDS011;63488;48.092;-1.640;2022-12-29T10:53:55;12.82;;;2.55;;
74926;SDS011;63488;48.092;-1.640;2022-12-29T10:58:48;11.73;;;2.33;;
74926;SDS011;63488;48.092;-1.640;2022-12-29T11:01:15;13.77;;;2.50;;
74926;SDS011;63488;48.092;-1.640;2022-12-29T11:03:50;12.23;;;2.42;;
74926;SDS011;63488;48.092;-1.640;2022-12-29T11:09:18;9.93;;;2.10;;
74926;SDS011;63488;48.092;-1.640;2022-12-29T11:11:35;14.25;;;2.45;;
74926;SDS011;63488;48.092;-1.640;2022-12-29T11:14:14;10.65;;;2.33;;
74926;SDS011;63488;48.092;-1.640;2022-12-29T11:16:40;15.27;;;2.67;;
74926;SDS011;63488;48.092;-1.640;2022-12-29T11:19:19;16.38;;;2.80;;
74926;SDS011;63488;48.092;-1.640;2022-12-29T11:21:44;14.05;;;2.38;;
74926;SDS011;63488;48.092;-1.640;2022-12-29T11:24:28;12.55;;;2.53;;
74926;SDS011;63488;48.092;-1.640;2022-12-29T11:29:39;11.98;;;2.03;;
74926;SDS011;63488;48.092;-1.640;2022-12-29T11:32:25;12.13;;;2.00;;
74926;SDS011;63488;48.092;-1.640;2022-12-29T11:34:50;15.25;;;2.60;;
74926;SDS011;63488;48.092;-1.640;2022-12-29T11:37:32;13.90;;;2.15;;
74926;SDS011;63488;48.092;-1.640;2022-12-29T11:43:31;15.52;;;2.30;;
74926;SDS011;63488;48.092;-1.640;2022-12-29T11:45:25;12.98;;;2.53;;
74926;SDS011;63488;48.092;-1.640;2022-12-29T11:47:55;14.48;;;2.33;;
74926;SDS011;63488;48.092;-1.640;2022-12-29T11:50:22;12.38;;;2.20;;
74926;SDS011;63488;48.092;-1.640;2022-12-29T11:52:49;12.95;;;2.22;;
74926;SDS011;63488;48.092;-1.640;2022-12-29T11:55:17;12.52;;;2.08;;
74926;SDS011;63488;48.092;-1.640;2022-12-29T11:57:43;10.50;;;1.90;;
74926;SDS011;63488;48.092;-1.640;2022-12-29T12:00:19;14.80;;;2.38;;
74926;SDS011;63488;48.092;-1.640;2022-12-29T12:02:50;12.75;;;2.70;;
74926;SDS011;63488;48.092;-1.640;2022-12-29T12:05:20;12.65;;;2.42;;
74926;SDS011;63488;48.092;-1.640;2022-12-29T12:07:49;15.70;;;2.42;;
74926;SDS011;63488;48.092;-1.640;2022-12-29T12:10:25;13.68;;;2.53;;
74926;SDS011;63488;48.092;-1.640;2022-12-29T12:13:03;15.30;;;2.60;;
74926;SDS011;63488;48.092;-1.640;2022-12-29T12:15:39;13.73;;;2.38;;
74926;SDS011;63488;48.092;-1.640;2022-12-29T12:34:16;15.15;;;2.53;;
74926;SDS011;63488;48.092;-1.640;2022-12-29T12:36:53;11.35;;;2.13;;
74926;SDS011;63488;48.092;-1.640;2022-12-29T12:39:24;14.60;;;2.85;;
74926;SDS011;63488;48.092;-1.640;2022-12-29T12:59:56;16.25;;;2.45;;
74926;SDS011;63488;48.092;-1.640;2022-12-29T13:05:16;13.05;;;2.20;;
74926;SDS011;63488;48.092;-1.640;2022-12-29T13:15:52;15.38;;;1.98;;
74926;SDS011;63488;48.092;-1.640;2022-12-29T13:23:38;12.98;;;2.05;;
74926;SDS011;63488;48.092;-1.640;2022-12-29T13:26:12;11.23;;;2.15;;
74926;SDS011;63488;48.092;-1.640;2022-12-29T13:33:55;11.88;;;2.00;;
74926;SDS011;63488;48.092;-1.640;2022-12-29T13:36:29;10.27;;;1.60;;
74926;SDS011;63488;48.092;-1.640;2022-12-29T13:39:42;7.22;;;1.35;;
74926;SDS011;63488;48.092;-1.640;2022-12-29T13:41:51;11.00;;;1.90;;
74926;SDS011;63488;48.092;-1.640;2022-12-29T13:44:35;7.63;;;1.30;;
74926;SDS011;63488;48.092;-1.640;2022-12-29T13:47:05;5.50;;;1.23;;
74926;SDS011;63488;48.092;-1.640;2022-12-29T13:49:31;6.53;;;1.33;;
74926;SDS011;63488;48.092;-1.640;2022-12-29T13:51:58;7.72;;;1.77;;
74926;SDS011;63488;48.092;-1.640;2022-12-29T13:59:50;7.82;;;1.80;;
74926;SDS011;63488;48.092;-1.640;2022-12-29T14:02:21;7.88;;;1.20;;
74926;SDS011;63488;48.092;-1.640;2022-12-29T14:04:59;6.90;;;1.15;;
74926;SDS011;63488;48.092;-1.640;2022-12-29T14:07:25;9.43;;;1.17;;
74926;SDS011;63488;48.092;-1.640;2022-12-29T14:09:51;6.85;;;1.13;;
74926;SDS011;63488;48.092;-1.640;2022-12-29T14:12:37;7.07;;;1.00;;
74926;SDS011;63488;48.092;-1.640;2022-12-29T14:15:04;3.17;;;0.95;;
74926;SDS011;63488;48.092;-1.640;2022-12-29T14:17:31;5.13;;;1.17;;
74926;SDS011;63488;48.092;-1.640;2022-12-29T14:19:56;7.13;;;1.27;;
74926;SDS011;63488;48.092;-1.640;2022-12-29T14:22:23;7.10;;;1.20;;
74926;SDS011;63488;48.092;-1.640;2022-12-29T14:24:48;4.68;;;1.40;;
74926;SDS011;63488;48.092;-1.640;2022-12-29T14:35:36;6.25;;;0.98;;
74926;SDS011;63488;48.092;-1.640;2022-12-29T14:38:03;6.03;;;0.93;;
74926;SDS011;63488;48.092;-1.640;2022-12-29T14:40:30;7.20;;;1.20;;
74926;SDS011;63488;48.092;-1.640;2022-12-29T14:42:55;6.45;;;0.90;;
74926;SDS011;63488;48.092;-1.640;2022-12-29T14:45:26;5.22;;;1.15;;
74926;SDS011;63488;48.092;-1.640;2022-12-29T14:47:52;4.88;;;0.88;;
74926;SDS011;63488;48.092;-1.640;2022-12-29T14:50:30;4.20;;;1.05;;
74926;SDS011;63488;48.092;-1.640;2022-12-29T14:53:00;5.03;;;1.25;;
74926;SDS011;63488;48.092;-1.640;2022-12-29T14:58:01;6.32;;;1.10;;
74926;SDS011;63488;48.092;-1.640;2022-12-29T15:00:29;7.78;;;1.30;;
74926;SDS011;63488;48.092;-1.640;2022-12-29T15:03:05;7.80;;;1.52;;
74926;SDS011;63488;48.092;-1.640;2022-12-29T15:08:19;6.55;;;1.60;;
74926;SDS011;63488;48.092;-1.640;2022-12-29T15:13:55;11.20;;;1.63;;
74926;SDS011;63488;48.092;-1.640;2022-12-29T15:15:55;10.50;;;1.20;;
74926;SDS011;63488;48.092;-1.640;2022-12-29T15:18:30;5.97;;;1.30;;
74926;SDS011;63488;48.092;-1.640;2022-12-29T15:21:00;5.43;;;1.23;;
74926;SDS011;63488;48.092;-1.640;2022-12-29T15:23:25;5.80;;;1.33;;
74926;SDS011;63488;48.092;-1.640;2022-12-29T15:25:55;6.70;;;1.20;;
74926;SDS011;63488;48.092;-1.640;2022-12-29T15:28:21;6.47;;;1.20;;
74926;SDS011;63488;48.092;-1.640;2022-12-29T15:30:53;7.75;;;1.50;;
74926;SDS011;63488;48.092;-1.640;2022-12-29T15:33:20;6.53;;;1.35;;
74926;SDS011;63488;48.092;-1.640;2022-12-29T15:35:49;7.88;;;1.48;;
74926;SDS011;63488;48.092;-1.640;2022-12-29T15:38:16;2.38;;;0.73;;
74926;SDS011;63488;48.092;-1.640;2022-12-29T15:40:45;6.47;;;1.17;;
74926;SDS011;63488;48.092;-1.640;2022-12-29T15:45:36;7.32;;;0.82;;
74926;SDS011;63488;48.092;-1.640;2022-12-29T15:48:01;4.40;;;1.10;;
74926;SDS011;63488;48.092;-1.640;2022-12-29T15:50:29;4.10;;;1.02;;
74926;SDS011;63488;48.092;-1.640;2022-12-29T15:52:54;4.43;;;0.80;;
74926;SDS011;63488;48.092;-1.640;2022-12-29T15:55:23;4.18;;;0.75;;
74926;SDS011;63488;48.092;-1.640;2022-12-29T15:57:49;3.80;;;0.70;;
74926;SDS011;63488;48.092;-1.640;2022-12-29T16:00:24;3.80;;;0.93;;
74926;SDS011;63488;48.092;-1.640;2022-12-29T16:02:50;6.55;;;1.00;;
74926;SDS011;63488;48.092;-1.640;2022-12-29T16:05:16;6.57;;;1.33;;
74926;SDS011;63488;48.092;-1.640;2022-12-29T16:07:51;4.88;;;1.13;;
74926;SDS011;63488;48.092;-1.640;2022-12-29T16:15:44;7.93;;;1.35;;
74926;SDS011;63488;48.092;-1.640;2022-12-29T16:18:43;3.97;;;0.80;;
74926;SDS011;63488;48.092;-1.640;2022-12-29T16:21:02;5.97;;;1.27;;
74926;SDS011;63488;48.092;-1.640;2022-12-29T16:23:29;6.20;;;1.45;;
74926;SDS011;63488;48.092;-1.640;2022-12-29T16:25:55;4.40;;;1.17;;
74926;SDS011;63488;48.092;-1.640;2022-12-29T16:28:25;9.90;;;1.40;;
74926;SDS011;63488;48.092;-1.640;2022-12-29T16:31:02;6.75;;;1.20;;
74926;SDS011;63488;48.092;-1.640;2022-12-29T16:33:50;5.38;;;1.00;;
74926;SDS011;63488;48.092;-1.640;2022-12-29T16:36:33;5.50;;;1.30;;
74926;SDS011;63488;48.092;-1.640;2022-12-29T16:41:42;4.63;;;1.20;;
74926;SDS011;63488;48.092;-1.640;2022-12-29T16:44:11;7.50;;;1.35;;
74926;SDS011;63488;48.092;-1.640;2022-12-29T16:46:38;4.45;;;0.93;;
74926;SDS011;63488;48.092;-1.640;2022-12-29T16:51:34;4.20;;;1.00;;
74926;SDS011;63488;48.092;-1.640;2022-12-29T16:54:00;5.88;;;1.00;;
74926;SDS011;63488;48.092;-1.640;2022-12-29T16:56:27;3.38;;;0.80;;
74926;SDS011;63488;48.092;-1.640;2022-12-29T16:59:01;5.70;;;1.55;;
74926;SDS011;63488;48.092;-1.640;2022-12-29T17:01:27;3.85;;;1.17;;
74926;SDS011;63488;48.092;-1.640;2022-12-29T17:03:53;6.68;;;1.35;;
74926;SDS011;63488;48.092;-1.640;2022-12-29T17:06:20;7.40;;;1.52;;
74926;SDS011;63488;48.092;-1.640;2022-12-29T17:08:46;4.72;;;1.25;;